Time;durP1;ratioP1;P1;durP2;ratioP2;P2;SDS_P1;SDS_P2;PMS_P1;PMS_P2;Temp;Humidity;BMP_temperature;BMP_pressure;BME280_temperature;BME280_humidity;BME280_pressure;Samples;Min_cycle;Max_cycle;Signal;HPM_P1;HPM_P2
2021/09/04 00:01:36;;;;;;;5.65;1.25;;;;;;;19.52;60.50;101984.84;5532004;23;20057;-72
2021/09/04 00:04:01;;;;;;;4.93;1.50;;;;;;;19.49;59.56;101978.84;5041521;28;20040;-60
2021/09/04 00:06:26;;;;;;;3.63;1.15;;;;;;;19.58;60.25;101977.94;5042403;28;20057;-60
2021/09/04 00:08:52;;;;;;;5.13;1.75;;;;;;;19.52;59.24;101979.38;5041889;28;20036;-60
2021/09/04 00:11:17;;;;;;;1.27;0.55;;;;;;;19.64;59.45;101976.47;5040226;28;20036;-60
2021/09/04 00:13:43;;;;;;;3.85;1.50;;;;;;;19.62;59.24;101975.75;5040310;28;20035;-59
2021/09/04 00:16:10;;;;;;;1.50;0.82;;;;;;;19.53;60.42;101974.78;5041881;28;20116;-59
2021/09/04 00:18:35;;;;;;;6.85;1.83;;;;;;;19.60;59.51;101977.78;5039902;28;20025;-60
2021/09/04 00:21:01;;;;;;;2.65;1.30;;;;;;;19.51;59.56;101977.66;5042438;28;20128;-61
2021/09/04 00:23:27;;;;;;;4.45;1.45;;;;;;;19.62;59.82;101983.94;5044364;28;20059;-59
2021/09/04 00:25:52;;;;;;;3.70;0.90;;;;;;;19.59;59.89;101982.38;5044710;28;20035;-60
2021/09/04 00:28:17;;;;;;;5.63;1.85;;;;;;;19.52;59.78;101979.38;5044354;28;20044;-60
2021/09/04 00:30:43;;;;;;;4.28;1.15;;;;;;;19.52;59.75;101984.84;5042561;28;20462;-60
2021/09/04 00:33:08;;;;;;;3.83;1.15;;;;;;;19.50;59.79;101992.31;5042281;28;20400;-59
2021/09/04 00:35:34;;;;;;;4.43;1.45;;;;;;;19.53;59.82;101981.09;5041582;28;20055;-60
2021/09/04 00:37:59;;;;;;;5.75;1.63;;;;;;;19.45;59.70;101977.41;5024384;28;20051;-60
2021/09/04 00:40:25;;;;;;;4.47;1.00;;;;;;;19.48;59.56;101993.44;5024680;28;20029;-60
2021/09/04 00:42:50;;;;;;;2.90;1.15;;;;;;;19.46;59.06;101990.88;5042252;28;20029;-60
2021/09/04 00:45:15;;;;;;;3.83;1.15;;;;;;;19.47;59.20;101987.13;5040835;28;20511;-60
2021/09/04 00:47:57;;;;;;;2.08;0.93;;;;;;;19.44;60.39;101992.03;5044146;28;20025;-59
2021/09/04 00:50:24;;;;;;;2.75;1.40;;;;;;;19.48;59.78;101991.63;5040716;28;20025;-59
2021/09/04 00:52:49;;;;;;;3.85;1.15;;;;;;;19.46;59.38;102001.78;5041178;28;20068;-60
2021/09/04 00:55:16;;;;;;;2.22;0.70;;;;;;;19.45;59.67;101991.03;5042857;28;20021;-59
2021/09/04 00:57:41;;;;;;;2.15;0.70;;;;;;;19.36;59.70;101990.09;5040562;28;20131;-60
2021/09/04 01:00:08;;;;;;;6.70;1.90;;;;;;;19.35;59.92;101999.28;5043823;28;20720;-60
2021/09/04 01:02:33;;;;;;;3.65;1.30;;;;;;;19.34;60.22;101997.56;5038580;28;20056;-59
2021/09/04 01:04:58;;;;;;;5.55;1.33;;;;;;;19.36;60.14;101995.53;5042909;28;20358;-59
2021/09/04 01:07:24;;;;;;;2.30;0.90;;;;;;;19.34;59.78;101991.25;5044401;28;20033;-60
2021/09/04 01:09:50;;;;;;;4.68;1.42;;;;;;;19.43;60.11;101991.19;5042988;28;20033;-60
2021/09/04 01:12:16;;;;;;;4.72;1.35;;;;;;;19.38;59.58;101993.50;5040887;28;20025;-59
2021/09/04 01:14:42;;;;;;;2.90;0.70;;;;;;;19.33;59.82;101987.66;5040748;28;20025;-60
2021/09/04 01:17:07;;;;;;;5.70;1.02;;;;;;;19.35;60.18;101993.81;5040855;28;20024;-61
2021/09/04 01:19:32;;;;;;;4.63;1.08;;;;;;;19.23;59.77;101995.88;5040290;28;20370;-60
2021/09/04 01:21:58;;;;;;;1.00;0.40;;;;;;;19.26;60.16;101994.72;5040846;28;20029;-59
2021/09/04 01:24:23;;;;;;;3.50;1.23;;;;;;;19.28;60.71;101992.69;5041047;28;20111;-60
2021/09/04 01:26:49;;;;;;;2.80;0.82;;;;;;;19.24;60.51;101996.72;5042873;28;20452;-61
2021/09/04 01:29:15;;;;;;;4.20;1.40;;;;;;;19.36;59.16;101995.53;5042065;28;20429;-59
2021/09/04 01:31:40;;;;;;;2.42;0.98;;;;;;;19.29;60.04;101993.53;5041252;28;20032;-59
2021/09/04 01:34:06;;;;;;;5.35;1.40;;;;;;;19.29;60.45;101999.84;5040637;28;20025;-60
2021/09/04 01:36:33;;;;;;;2.83;0.93;;;;;;;19.35;60.25;102001.16;5039573;28;20021;-61
2021/09/04 01:38:59;;;;;;;4.30;1.02;;;;;;;19.27;60.21;102001.88;5040819;28;20028;-59
2021/09/04 01:41:26;;;;;;;5.95;2.20;;;;;;;19.24;60.14;101996.72;5040946;28;20057;-59
2021/09/04 01:43:52;;;;;;;2.55;0.80;;;;;;;19.32;60.14;101999.59;5043023;28;20039;-60
2021/09/04 01:46:18;;;;;;;3.95;1.13;;;;;;;19.34;59.29;102002.16;5039864;28;20101;-60
2021/09/04 01:48:44;;;;;;;2.10;0.95;;;;;;;19.36;59.41;102001.00;5040743;28;20025;-59
2021/09/04 01:51:09;;;;;;;2.10;0.45;;;;;;;19.31;60.62;102003.28;5040634;28;20392;-60
2021/09/04 01:53:35;;;;;;;2.90;1.15;;;;;;;19.23;61.12;101997.75;5041817;28;20021;-60
2021/09/04 01:56:00;;;;;;;2.95;0.63;;;;;;;19.11;60.79;101997.06;5040768;28;20112;-59
2021/09/04 01:58:26;;;;;;;4.78;1.17;;;;;;;19.15;60.85;102003.94;5041288;28;20060;-60
2021/09/04 02:00:51;;;;;;;2.05;0.77;;;;;;;19.18;59.49;102013.69;5039603;28;20415;-60
2021/09/04 02:03:17;;;;;;;3.40;0.95;;;;;;;19.14;59.80;101999.47;5039109;28;20053;-60
2021/09/04 02:05:42;;;;;;;3.38;0.70;;;;;;;19.30;59.18;102001.56;5041747;28;20108;-59
2021/09/04 02:08:07;;;;;;;4.40;0.88;;;;;;;19.16;59.19;102005.66;5040546;28;20036;-60
2021/09/04 02:10:33;;;;;;;3.55;1.20;;;;;;;19.18;59.84;102002.78;5045891;28;20033;-61
2021/09/04 02:12:58;;;;;;;3.35;1.02;;;;;;;19.21;59.30;102008.78;5044922;28;20029;-59
2021/09/04 02:15:23;;;;;;;3.22;0.82;;;;;;;19.16;60.01;102013.00;5044722;28;20040;-60
2021/09/04 02:17:49;;;;;;;3.05;1.17;;;;;;;19.18;59.70;101998.19;5044171;28;20682;-60
2021/09/04 02:20:14;;;;;;;3.03;1.23;;;;;;;19.30;59.48;102004.31;5045657;28;20483;-59
2021/09/04 02:22:40;;;;;;;2.00;0.90;;;;;;;19.15;60.72;102014.84;5045227;28;20465;-60
2021/09/04 02:25:06;;;;;;;4.43;1.35;;;;;;;19.12;60.47;102008.81;5043912;28;20025;-60
2021/09/04 02:27:32;;;;;;;4.25;0.68;;;;;;;19.12;60.07;102019.72;5045069;28;20040;-60
2021/09/04 02:29:58;;;;;;;2.25;0.70;;;;;;;19.22;60.04;102017.84;5044935;28;20044;-59
2021/09/04 02:32:23;;;;;;;2.45;1.30;;;;;;;19.18;59.46;102020.00;5044758;28;20056;-60
2021/09/04 02:34:48;;;;;;;3.55;1.08;;;;;;;19.15;59.57;102020.31;5043759;28;20049;-60
2021/09/04 02:37:14;;;;;;;4.75;0.70;;;;;;;19.20;59.86;102014.41;5044952;28;20481;-59
2021/09/04 02:39:39;;;;;;;3.63;0.50;;;;;;;19.09;60.97;102011.84;5044127;28;20025;-60
2021/09/04 02:42:04;;;;;;;1.60;0.70;;;;;;;19.09;61.13;102015.44;5044243;28;20064;-61
2021/09/04 02:44:30;;;;;;;4.97;1.13;;;;;;;19.15;60.49;102014.00;5043979;28;20021;-60
2021/09/04 02:46:55;;;;;;;3.40;0.88;;;;;;;19.11;59.29;102018.00;5041598;28;21400;-59
2021/09/04 02:49:20;;;;;;;3.10;1.27;;;;;;;19.07;60.13;102022.03;5045293;28;20048;-60
2021/09/04 02:51:46;;;;;;;3.60;0.95;;;;;;;19.16;59.79;102016.56;5047071;28;20031;-61
2021/09/04 02:54:12;;;;;;;5.72;0.98;;;;;;;19.05;59.49;102018.59;5043279;28;20037;-59
2021/09/04 02:56:37;;;;;;;2.72;0.95;;;;;;;19.10;59.79;102016.28;5043609;28;20082;-60
2021/09/04 02:59:03;;;;;;;2.53;0.57;;;;;;;19.09;59.97;102025.47;5043245;28;20021;-61
2021/09/04 03:01:28;;;;;;;4.15;0.77;;;;;;;19.05;59.87;102024.06;5040725;28;20047;-59
2021/09/04 03:03:53;;;;;;;2.95;1.00;;;;;;;19.06;59.49;102031.22;5045251;28;20055;-61
2021/09/04 03:06:19;;;;;;;4.88;1.20;;;;;;;19.11;60.89;102031.63;5041485;28;20025;-60
2021/09/04 03:08:44;;;;;;;3.45;0.77;;;;;;;19.15;60.52;102030.34;5044269;28;20041;-60
2021/09/04 03:11:09;;;;;;;3.03;0.75;;;;;;;19.08;60.20;102040.09;5047887;28;20048;-60
2021/09/04 03:13:35;;;;;;;1.30;0.32;;;;;;;19.12;60.76;102036.06;5043675;28;20024;-60
2021/09/04 03:16:00;;;;;;;2.08;0.55;;;;;;;19.16;58.72;102037.53;5041359;28;20025;-61
2021/09/04 03:18:26;;;;;;;2.45;0.52;;;;;;;19.12;61.46;102039.66;5042946;28;20017;-61
2021/09/04 03:20:51;;;;;;;1.13;0.32;;;;;;;19.14;59.67;102034.06;5043354;28;20029;-60
2021/09/04 03:23:16;;;;;;;2.00;0.63;;;;;;;19.11;59.88;102031.63;5042218;28;20024;-61
2021/09/04 03:25:42;;;;;;;2.67;0.70;;;;;;;19.09;60.05;102036.38;5047733;28;20481;-60
2021/09/04 03:28:08;;;;;;;2.97;0.70;;;;;;;19.09;60.88;102033.66;5047318;28;20357;-60
2021/09/04 03:30:34;;;;;;;2.80;0.65;;;;;;;19.05;61.46;102038.53;5047631;28;20028;-60
2021/09/04 03:32:59;;;;;;;1.42;0.30;;;;;;;19.11;59.66;102039.81;5050849;28;20354;-60
2021/09/04 03:35:25;;;;;;;2.15;0.45;;;;;;;19.10;59.75;102038.09;5044528;28;20033;-60
2021/09/04 03:37:50;;;;;;;4.28;0.98;;;;;;;19.06;60.04;102053.88;5044540;28;20529;-60
2021/09/04 03:40:15;;;;;;;3.85;0.98;;;;;;;19.05;60.13;102054.91;5044056;28;20074;-60
2021/09/04 03:42:41;;;;;;;4.28;0.80;;;;;;;19.05;60.36;102056.75;5043911;28;20033;-61
2021/09/04 03:45:06;;;;;;;4.85;1.05;;;;;;;18.99;60.39;102051.91;5043392;28;20547;-59
2021/09/04 03:47:32;;;;;;;1.50;0.45;;;;;;;19.02;60.88;102057.06;5040015;28;20037;-59
2021/09/04 03:49:57;;;;;;;5.10;0.65;;;;;;;19.03;60.20;102056.06;5044312;28;20497;-60
2021/09/04 03:52:22;;;;;;;3.10;1.30;;;;;;;19.03;61.32;102056.06;5041082;28;20029;-61
2021/09/04 03:54:48;;;;;;;4.20;0.65;;;;;;;19.00;59.95;102059.09;5047118;28;20033;-60
2021/09/04 03:57:13;;;;;;;2.90;0.50;;;;;;;19.03;61.31;102064.22;5038852;28;20043;-60
2021/09/04 03:59:38;;;;;;;1.65;0.65;;;;;;;19.09;61.19;102064.50;5037979;28;20473;-60
2021/09/04 04:02:05;;;;;;;2.05;0.60;;;;;;;19.36;60.31;102057.41;5041753;28;20058;-61
2021/09/04 04:04:30;;;;;;;0.75;0.43;;;;;;;19.91;58.38;102049.28;5047444;28;20036;-60
2021/09/04 04:06:55;;;;;;;0.55;0.30;;;;;;;20.19;57.65;102058.31;5039374;28;20064;-60
2021/09/04 04:09:21;;;;;;;0.30;0.10;;;;;;;20.35;57.33;102062.06;5039176;28;20071;-61
2021/09/04 04:11:46;;;;;;;2.15;0.30;;;;;;;20.50;57.53;102058.81;5045937;28;20037;-59
2021/09/04 04:14:11;;;;;;;0.30;0.30;;;;;;;20.66;57.07;102057.09;5042084;28;20021;-60
2021/09/04 04:16:37;;;;;;;0.88;0.38;;;;;;;20.72;56.75;102061.91;5043561;28;20029;-61
2021/09/04 04:19:02;;;;;;;0.35;0.15;;;;;;;20.73;56.88;102068.25;5041210;28;20025;-60
2021/09/04 04:21:27;;;;;;;0.90;0.30;;;;;;;20.80;57.07;102068.47;5042971;28;20483;-60
2021/09/04 04:23:53;;;;;;;0.40;0.20;;;;;;;20.88;57.69;102079.47;5041195;28;20155;-61
2021/09/04 04:26:18;;;;;;;0.50;0.20;;;;;;;20.94;57.58;102070.63;5042502;28;20033;-61
2021/09/04 04:28:44;;;;;;;1.38;0.40;;;;;;;20.93;57.18;102069.78;5041594;28;20099;-59
2021/09/04 04:31:09;;;;;;;0.50;0.30;;;;;;;20.90;57.89;102069.25;5040762;28;20034;-60
2021/09/04 04:33:34;;;;;;;0.47;0.32;;;;;;;20.79;58.15;102072.22;5041055;28;20091;-61
2021/09/04 04:35:59;;;;;;;0.80;0.30;;;;;;;20.97;58.14;102071.16;5040102;28;20056;-60
2021/09/04 04:38:25;;;;;;;0.70;0.30;;;;;;;20.98;57.86;102077.47;5040989;28;20056;-60
2021/09/04 04:40:50;;;;;;;1.30;0.50;;;;;;;21.01;58.06;102082.66;5042458;28;20043;-61
2021/09/04 04:43:16;;;;;;;1.25;0.52;;;;;;;20.99;57.97;102079.19;5040397;28;20103;-62
2021/09/04 04:45:42;;;;;;;0.50;0.30;;;;;;;20.97;58.48;102090.28;5041171;28;20466;-59
2021/09/04 04:48:07;;;;;;;2.60;0.30;;;;;;;20.97;58.56;102086.72;5041162;28;20488;-61
2021/09/04 04:50:33;;;;;;;1.65;0.38;;;;;;;20.95;59.09;102088.75;5042144;28;20032;-61
2021/09/04 04:52:58;;;;;;;0.98;0.60;;;;;;;21.01;58.62;102082.66;5041181;28;20032;-60
2021/09/04 04:55:23;;;;;;;1.45;0.20;;;;;;;20.94;59.55;102084.28;5042236;28;20056;-61
2021/09/04 04:57:49;;;;;;;0.45;0.40;;;;;;;20.93;58.90;102085.31;5041284;28;20440;-60
2021/09/04 05:00:14;;;;;;;1.65;0.73;;;;;;;21.07;58.66;102083.88;5041869;28;20073;-60
2021/09/04 05:02:40;;;;;;;1.27;0.13;;;;;;;21.00;59.89;102089.16;5040732;28;20059;-61
2021/09/04 05:05:07;;;;;;;1.05;0.40;;;;;;;20.95;60.86;102089.59;5041682;28;20037;-59
2021/09/04 05:07:33;;;;;;;0.60;0.30;;;;;;;20.95;59.52;102077.81;5039090;28;20056;-61
2021/09/04 05:09:58;;;;;;;0.50;0.30;;;;;;;21.04;60.10;102085.06;5041757;28;20025;-61
2021/09/04 05:12:23;;;;;;;1.02;0.28;;;;;;;20.98;60.84;102082.94;5041685;28;20118;-60
2021/09/04 05:14:49;;;;;;;1.52;0.38;;;;;;;21.05;59.70;102077.72;5041882;28;20028;-61
2021/09/04 05:17:14;;;;;;;0.35;0.20;;;;;;;21.01;60.27;102088.13;5041391;28;20103;-61
2021/09/04 05:19:39;;;;;;;0.68;0.20;;;;;;;20.99;61.19;102084.66;5040230;28;20021;-59
2021/09/04 05:22:05;;;;;;;1.27;0.30;;;;;;;21.00;60.03;102089.16;5041196;28;21339;-61
2021/09/04 05:24:30;;;;;;;0.75;0.22;;;;;;;21.01;61.67;102088.13;5042438;28;20021;-61
2021/09/04 05:26:56;;;;;;;1.23;0.30;;;;;;;20.99;60.81;102095.59;5041975;28;20067;-60
2021/09/04 05:29:21;;;;;;;1.00;0.40;;;;;;;20.99;61.23;102093.72;5040861;28;20036;-60
2021/09/04 05:31:46;;;;;;;1.10;0.40;;;;;;;21.05;60.71;102105.06;5040738;28;20031;-61
2021/09/04 05:34:11;;;;;;;0.70;0.20;;;;;;;21.03;61.25;102108.81;5041552;28;20067;-60
2021/09/04 05:36:37;;;;;;;0.60;0.30;;;;;;;21.10;60.48;102097.22;5041608;28;20120;-60
2021/09/04 05:39:02;;;;;;;0.60;0.32;;;;;;;20.99;61.33;102107.41;5041150;28;20530;-61
2021/09/04 05:41:28;;;;;;;0.98;0.30;;;;;;;21.04;60.87;102104.22;5040054;28;20032;-60
2021/09/04 05:43:53;;;;;;;0.93;0.40;;;;;;;21.10;61.10;102109.03;5041796;28;20036;-61
2021/09/04 05:46:18;;;;;;;1.90;0.28;;;;;;;21.02;61.87;102108.97;5041093;28;20025;-60
2021/09/04 05:48:44;;;;;;;1.00;0.30;;;;;;;21.02;61.61;102104.38;5040785;28;20598;-60
2021/09/04 05:51:09;;;;;;;0.45;0.20;;;;;;;21.09;61.49;102112.78;5041093;28;20136;-60
2021/09/04 05:53:34;;;;;;;1.17;0.40;;;;;;;20.96;62.03;102102.25;5041025;28;20029;-60
2021/09/04 05:56:00;;;;;;;0.80;0.30;;;;;;;20.99;61.96;102107.41;5040235;28;20078;-59
2021/09/04 05:58:25;;;;;;;1.70;0.32;;;;;;;21.12;61.40;102107.00;5044125;28;20025;-60
2021/09/04 06:00:54;;;;;;;1.95;0.40;;;;;;;21.05;60.82;102111.41;5039566;28;20045;-62
2021/09/04 06:03:19;;;;;;;1.30;0.45;;;;;;;21.06;61.77;102110.38;5043217;28;20060;-61
2021/09/04 06:05:44;;;;;;;0.82;0.40;;;;;;;21.09;61.66;102117.41;5042510;28;20025;-60
2021/09/04 06:08:10;;;;;;;0.50;0.30;;;;;;;21.08;61.24;102116.53;5041684;28;20025;-61
2021/09/04 06:10:35;;;;;;;1.13;0.30;;;;;;;21.05;62.31;102119.59;5043152;28;20469;-61
2021/09/04 06:13:01;;;;;;;2.83;0.47;;;;;;;21.04;62.06;102115.16;5041570;28;20021;-59
2021/09/04 06:15:27;;;;;;;0.75;0.20;;;;;;;21.08;61.75;102124.75;5041348;28;20132;-60
2021/09/04 06:17:52;;;;;;;1.27;0.38;;;;;;;21.07;62.08;102120.28;5038977;28;20048;-61
2021/09/04 06:20:18;;;;;;;0.73;0.20;;;;;;;21.05;62.05;102127.81;5040667;28;20032;-60
2021/09/04 06:22:43;;;;;;;1.23;0.38;;;;;;;21.05;62.57;102122.34;5040477;28;20474;-61
2021/09/04 06:25:09;;;;;;;2.13;0.25;;;;;;;21.08;61.78;102135.69;5041397;28;20032;-60
2021/09/04 06:27:35;;;;;;;1.85;0.43;;;;;;;21.11;62.92;102126.28;5039091;28;20032;-60
2021/09/04 06:30:01;;;;;;;2.25;0.40;;;;;;;21.08;62.31;102132.94;5039226;28;20099;-60
2021/09/04 06:32:27;;;;;;;1.77;0.30;;;;;;;21.11;61.75;102140.81;5043781;28;20049;-60
2021/09/04 06:34:54;;;;;;;0.40;0.17;;;;;;;21.09;62.13;102134.66;5041087;28;20100;-61
2021/09/04 06:37:19;;;;;;;0.35;0.35;;;;;;;21.11;62.25;102140.81;5039193;28;20557;-60
2021/09/04 06:39:44;;;;;;;0.85;0.30;;;;;;;21.08;61.55;102135.69;5041296;28;20131;-60
2021/09/04 06:42:10;;;;;;;0.60;0.20;;;;;;;21.13;61.72;102127.00;5042864;28;20055;-61
2021/09/04 06:44:35;;;;;;;1.77;0.30;;;;;;;21.12;62.75;102111.59;5041573;28;20469;-60
2021/09/04 06:47:00;;;;;;;2.47;0.50;;;;;;;21.16;62.82;102124.78;5041411;28;20120;-60
2021/09/04 06:49:26;;;;;;;0.38;0.25;;;;;;;21.13;63.22;102125.13;5037385;28;20017;-61
2021/09/04 06:51:51;;;;;;;1.52;0.60;;;;;;;21.14;63.37;102124.09;5042246;28;20037;-61
2021/09/04 06:54:16;;;;;;;1.42;0.30;;;;;;;21.20;63.39;102122.63;5040146;28;20362;-59
2021/09/04 06:56:42;;;;;;;0.70;0.28;;;;;;;21.18;62.70;102122.78;5044118;28;20401;-60
2021/09/04 06:59:10;;;;;;;1.35;0.40;;;;;;;21.18;63.41;102122.78;5046082;28;20024;-60
2021/09/04 07:01:35;;;;;;;1.27;0.38;;;;;;;21.32;63.01;102124.94;5045066;28;20490;-60
2021/09/04 07:04:01;;;;;;;1.05;0.20;;;;;;;21.25;63.59;102120.28;5045134;28;20033;-60
2021/09/04 07:06:26;;;;;;;1.02;0.22;;;;;;;21.29;63.34;102136.22;5042715;28;20033;-61
2021/09/04 07:08:52;;;;;;;2.60;0.50;;;;;;;21.27;63.96;102126.47;5043238;28;20026;-60
2021/09/04 07:11:17;;;;;;;1.23;0.28;;;;;;;21.31;62.31;102122.38;5043145;28;20032;-60
2021/09/04 07:13:42;;;;;;;2.50;0.43;;;;;;;21.29;63.13;102118.94;5044869;28;20475;-60
2021/09/04 07:16:07;;;;;;;1.95;0.57;;;;;;;21.18;63.35;102117.31;5044864;28;20033;-60
2021/09/04 07:18:33;;;;;;;1.70;0.80;;;;;;;21.20;62.92;102126.22;5043437;28;20025;-59
2021/09/04 07:20:58;;;;;;;1.23;0.40;;;;;;;21.16;62.68;102133.00;5040396;28;20049;-60
2021/09/04 07:23:23;;;;;;;0.47;0.30;;;;;;;21.17;63.24;102134.75;5041910;28;20040;-61
2021/09/04 07:25:49;;;;;;;0.90;0.20;;;;;;;21.06;62.67;102134.97;5047332;28;20032;-60
2021/09/04 07:28:14;;;;;;;0.95;0.20;;;;;;;21.09;62.53;102134.66;5042517;28;20468;-60
2021/09/04 07:30:40;;;;;;;2.92;0.47;;;;;;;21.05;63.10;102127.81;5045124;28;20123;-60
2021/09/04 07:33:05;;;;;;;1.50;0.40;;;;;;;21.00;63.09;102136.47;5046945;28;20473;-61
2021/09/04 07:35:31;;;;;;;1.05;0.57;;;;;;;21.12;62.97;102134.34;5043037;28;20523;-59
2021/09/04 07:37:56;;;;;;;2.25;0.25;;;;;;;21.11;62.74;102135.34;5045293;28;20021;-60
2021/09/04 07:40:22;;;;;;;1.42;0.57;;;;;;;21.14;62.32;102145.97;5045090;28;20044;-60
2021/09/04 07:42:47;;;;;;;2.10;0.50;;;;;;;21.09;63.13;102145.59;5039645;28;20033;-59
2021/09/04 07:45:13;;;;;;;2.17;0.40;;;;;;;21.11;62.76;102143.56;5045418;28;20034;-60
2021/09/04 07:47:38;;;;;;;1.90;0.60;;;;;;;21.08;63.14;102146.63;5046839;28;20040;-61
2021/09/04 07:50:05;;;;;;;1.75;0.40;;;;;;;21.06;62.67;102143.19;5047313;28;20029;-59
2021/09/04 07:52:31;;;;;;;2.22;0.40;;;;;;;21.11;63.29;102139.97;5039782;28;20112;-59
2021/09/04 07:54:56;;;;;;;1.90;0.60;;;;;;;21.16;62.30;102143.94;5045353;28;20100;-60
2021/09/04 07:57:21;;;;;;;0.68;0.20;;;;;;;21.19;62.55;102140.06;5042038;28;20058;-60
2021/09/04 07:59:47;;;;;;;1.08;0.22;;;;;;;21.14;63.38;102143.25;5045505;28;20080;-60
2021/09/04 08:02:12;;;;;;;1.23;0.30;;;;;;;21.05;64.39;102146.94;5044687;28;20475;-59
2021/09/04 08:04:37;;;;;;;1.40;0.50;;;;;;;21.09;63.29;102151.06;5046541;28;20024;-59
2021/09/04 08:07:03;;;;;;;0.50;0.30;;;;;;;21.08;63.87;102153.97;5039318;28;20814;-60
2021/09/04 08:09:28;;;;;;;0.65;0.30;;;;;;;21.15;62.50;102155.03;5044927;28;20098;-60
2021/09/04 08:11:54;;;;;;;0.98;0.35;;;;;;;21.12;63.19;102158.94;5043593;28;20281;-59
2021/09/04 08:14:19;;;;;;;1.88;0.30;;;;;;;21.12;63.99;102167.16;5043335;28;20029;-60
2021/09/04 08:16:44;;;;;;;1.60;0.50;;;;;;;21.14;63.18;102159.66;5041273;28;20049;-61
2021/09/04 08:19:10;;;;;;;1.70;0.30;;;;;;;21.11;63.55;102173.63;5039478;28;20516;-59
2021/09/04 08:21:35;;;;;;;3.15;0.52;;;;;;;21.18;62.77;102169.28;5047760;28;20021;-60
2021/09/04 08:24:01;;;;;;;0.65;0.20;;;;;;;21.19;63.18;102179.19;5040314;28;20509;-62
2021/09/04 08:26:26;;;;;;;0.95;0.20;;;;;;;21.09;62.84;102172.94;5042688;28;20167;-59
2021/09/04 08:28:51;;;;;;;1.55;0.43;;;;;;;21.15;63.60;102172.31;5042519;28;20029;-59
2021/09/04 08:31:17;;;;;;;2.10;0.20;;;;;;;21.15;63.12;102183.25;5043296;28;20032;-61
2021/09/04 08:33:42;;;;;;;1.10;0.20;;;;;;;21.27;63.73;102171.06;5048860;28;20489;-59
2021/09/04 08:36:07;;;;;;;0.85;0.20;;;;;;;21.22;63.47;102172.56;5048839;28;20438;-59
2021/09/04 08:38:33;;;;;;;0.90;0.50;;;;;;;21.15;63.88;102172.31;5042348;28;20379;-60
2021/09/04 08:40:58;;;;;;;0.52;0.28;;;;;;;21.07;63.12;102177.72;5040447;28;20021;-61
2021/09/04 08:43:23;;;;;;;2.05;0.40;;;;;;;21.07;63.17;102177.72;5048474;28;20029;-59
2021/09/04 08:45:48;;;;;;;0.25;0.20;;;;;;;21.11;63.95;102172.78;5048812;28;20477;-60
2021/09/04 08:48:14;;;;;;;1.63;0.30;;;;;;;21.19;63.13;102181.94;5046237;28;20029;-61
2021/09/04 08:50:40;;;;;;;2.90;0.60;;;;;;;21.09;62.88;102172.94;5042648;28;20074;-60
2021/09/04 08:53:05;;;;;;;3.63;0.55;;;;;;;21.14;63.43;102189.72;5039533;28;20059;-59
2021/09/04 08:55:31;;;;;;;1.15;0.30;;;;;;;21.12;63.35;102182.69;5027857;28;20021;-60
2021/09/04 08:57:56;;;;;;;0.85;0.20;;;;;;;21.13;63.22;102185.28;5042770;28;20016;-60
2021/09/04 09:00:34;;;;;;;0.30;0.30;;;;;;;21.05;64.45;102187.97;5040826;28;20035;-60
2021/09/04 09:02:59;;;;;;;1.10;0.38;;;;;;;21.18;62.87;102193.03;5041895;28;20377;-60
2021/09/04 09:05:28;;;;;;;2.00;0.35;;;;;;;21.18;63.37;102193.88;5043998;28;20040;-60
2021/09/04 09:07:53;;;;;;;1.80;0.40;;;;;;;21.16;63.00;102190.44;5037448;28;20057;-59
2021/09/04 09:10:22;;;;;;;2.00;0.60;;;;;;;21.13;64.55;102190.75;5037784;28;20052;-60
2021/09/04 09:12:48;;;;;;;2.33;0.60;;;;;;;21.19;63.33;102186.53;5043223;28;20032;-60
2021/09/04 09:15:32;;;;;;;2.67;0.60;;;;;;;21.17;63.93;102202.25;5043174;28;20029;-59
2021/09/04 09:18:03;;;;;;;1.92;0.50;;;;;;;21.16;63.63;102204.09;5037326;28;20064;-60
2021/09/04 09:20:29;;;;;;;3.00;0.47;;;;;;;21.14;64.34;102206.13;5034902;28;20358;-60
2021/09/04 09:23:03;;;;;;;1.38;0.40;;;;;;;21.17;63.46;102210.47;5040339;28;20396;-59
2021/09/04 09:25:31;;;;;;;1.98;0.40;;;;;;;21.16;63.42;102223.25;5031861;28;20063;-60
2021/09/04 09:28:17;;;;;;;2.45;0.50;;;;;;;21.17;63.69;102225.00;5045813;28;20500;-60
2021/09/04 09:30:44;;;;;;;1.45;0.40;;;;;;;21.12;63.54;102216.38;5038964;28;20580;-59
2021/09/04 09:33:16;;;;;;;0.57;0.30;;;;;;;21.18;63.92;102221.25;5034572;28;20061;-60
2021/09/04 09:35:46;;;;;;;0.75;0.30;;;;;;;21.07;64.68;102226.94;5034792;28;20017;-60
2021/09/04 09:38:15;;;;;;;5.82;1.15;;;;;;;21.08;64.30;102225.91;5041731;28;20104;-59
2021/09/04 09:40:41;;;;;;;2.55;0.40;;;;;;;21.23;63.56;102218.03;5040756;28;20021;-59
2021/09/04 09:43:24;;;;;;;2.60;0.40;;;;;;;21.11;63.23;102233.81;5042521;28;20021;-60
2021/09/04 09:45:58;;;;;;;0.65;0.22;;;;;;;21.17;62.91;102224.13;5040381;28;20092;-60
2021/09/04 09:48:26;;;;;;;1.52;0.30;;;;;;;21.19;63.06;102216.63;5040611;28;20465;-60
2021/09/04 09:50:53;;;;;;;0.47;0.30;;;;;;;21.09;63.88;102215.84;5042596;28;20477;-60
2021/09/04 09:53:19;;;;;;;2.42;0.57;;;;;;;21.12;63.56;102221.84;5041717;28;21467;-60
2021/09/04 09:55:47;;;;;;;4.30;0.50;;;;;;;21.16;63.54;102223.25;5041904;28;20470;-61
2021/09/04 09:58:14;;;;;;;1.20;0.28;;;;;;;21.15;63.33;102221.53;5035396;28;20104;-61
2021/09/04 10:00:40;;;;;;;0.45;0.17;;;;;;;21.13;64.13;102220.81;5042198;28;20420;-59
2021/09/04 10:03:08;;;;;;;1.65;0.20;;;;;;;21.25;63.35;102219.63;5039588;28;20049;-60
2021/09/04 10:05:34;;;;;;;1.02;0.20;;;;;;;21.26;63.06;102220.47;5047789;28;20767;-60
2021/09/04 10:08:00;;;;;;;2.03;0.82;;;;;;;21.24;63.36;102214.28;5039394;28;20072;-59
2021/09/04 10:10:30;;;;;;;0.68;0.20;;;;;;;21.16;63.82;102222.38;5040325;28;20029;-59
2021/09/04 10:12:58;;;;;;;1.73;0.40;;;;;;;21.20;63.80;102219.19;5042379;28;20048;-61
2021/09/04 10:15:27;;;;;;;2.35;0.52;;;;;;;21.27;63.30;102220.31;5046610;28;20051;-60
2021/09/04 10:17:54;;;;;;;0.40;0.30;;;;;;;21.24;63.94;102220.63;5041479;28;20027;-59
2021/09/04 10:20:23;;;;;;;0.63;0.20;;;;;;;21.19;64.25;102222.09;5043116;28;20029;-61
2021/09/04 10:22:48;;;;;;;1.38;0.60;;;;;;;21.15;64.47;102221.53;5039655;28;20029;-61
2021/09/04 10:25:16;;;;;;;0.40;0.17;;;;;;;21.21;64.27;102220.91;5042733;28;20021;-60
2021/09/04 10:27:43;;;;;;;0.77;0.25;;;;;;;21.17;63.87;102211.31;5037076;28;20026;-59
2021/09/04 10:30:27;;;;;;;0.85;0.25;;;;;;;21.27;63.90;102213.97;5039472;28;20071;-61
2021/09/04 10:32:55;;;;;;;1.40;0.30;;;;;;;21.29;64.19;102221.00;5050989;28;20020;-60
2021/09/04 10:35:48;;;;;;;1.95;0.60;;;;;;;21.20;63.57;102215.63;5043385;28;20100;-60
2021/09/04 10:38:19;;;;;;;1.13;0.20;;;;;;;21.17;64.08;102221.41;5043320;28;20032;-61
2021/09/04 10:40:45;;;;;;;1.85;0.20;;;;;;;21.22;63.85;102221.78;5045951;28;20034;-60
2021/09/04 10:43:13;;;;;;;1.45;0.40;;;;;;;21.26;64.23;102223.22;5048504;28;20078;-60
2021/09/04 10:45:38;;;;;;;0.93;0.30;;;;;;;21.18;64.07;102223.97;5043728;28;20523;-61
2021/09/04 10:48:16;;;;;;;0.80;0.28;;;;;;;21.14;64.75;102225.28;5048632;28;20041;-60
2021/09/04 10:50:42;;;;;;;1.73;0.65;;;;;;;21.20;64.03;102230.16;5043053;28;20048;-59
2021/09/04 10:53:07;;;;;;;0.55;0.28;;;;;;;21.17;64.11;102229.59;5045399;28;20036;-61
2021/09/04 10:55:37;;;;;;;1.33;0.28;;;;;;;21.24;63.46;102231.56;5045817;28;20025;-60
2021/09/04 10:58:09;;;;;;;0.68;0.22;;;;;;;21.15;63.61;102227.00;5042539;28;20049;-60
2021/09/04 11:00:37;;;;;;;1.52;0.28;;;;;;;21.21;63.73;102226.41;5045675;28;20461;-61
2021/09/04 11:03:08;;;;;;;2.38;0.40;;;;;;;21.17;64.06;102227.72;5045907;28;20049;-59
2021/09/04 11:05:51;;;;;;;0.57;0.20;;;;;;;21.16;64.23;102223.25;5037854;28;20377;-60
2021/09/04 11:08:19;;;;;;;1.45;0.40;;;;;;;21.15;63.70;102232.47;5048215;28;20086;-61
2021/09/04 11:10:47;;;;;;;0.55;0.22;;;;;;;21.24;63.04;102215.16;5045392;28;20033;-60
2021/09/04 11:13:12;;;;;;;1.88;0.28;;;;;;;21.20;63.61;102219.19;5044300;28;20028;-61
2021/09/04 11:15:39;;;;;;;0.45;0.30;;;;;;;21.21;63.37;102231.88;5043907;28;20021;-61
2021/09/04 11:18:04;;;;;;;1.85;0.20;;;;;;;21.13;64.18;102228.19;5044793;28;20409;-61
2021/09/04 11:20:30;;;;;;;0.50;0.20;;;;;;;21.27;63.93;102222.19;5045904;28;20032;-59